createdAt,value
2022-12-19T00:03:53.233Z,3.59
2022-12-19T00:08:53.080Z,3.20
2022-12-19T00:13:53.010Z,3.29
2022-12-19T00:18:55.520Z,3.50
2022-12-19T00:23:52.880Z,3.79
2022-12-19T00:28:52.826Z,3.79
2022-12-19T00:33:52.751Z,4.30
2022-12-19T00:38:52.696Z,3.79
2022-12-19T00:43:52.622Z,3.90
2022-12-19T00:48:52.566Z,3.09
2022-12-19T00:53:52.493Z,3.29
2022-12-19T00:58:52.429Z,3.70
2022-12-19T01:04:26.760Z,4.50
2022-12-19T01:08:53.327Z,3.79
2022-12-19T01:13:52.226Z,3.90
2022-12-19T01:18:52.170Z,3.20
2022-12-19T01:23:52.097Z,4.09
2022-12-19T01:28:52.040Z,3.40
2022-12-19T01:33:51.969Z,3.70
2022-12-19T01:38:51.915Z,3.59
2022-12-19T01:43:51.843Z,4.59
2022-12-19T01:48:51.789Z,4.19
2022-12-19T01:53:51.719Z,3.59
2022-12-19T01:58:55.393Z,4.00
2022-12-19T02:03:52.598Z,3.79
2022-12-19T02:08:51.507Z,3.90
2022-12-19T02:13:51.429Z,3.50
2022-12-19T02:18:51.374Z,3.09
2022-12-19T02:23:51.309Z,3.59
2022-12-19T02:28:51.250Z,3.59
2022-12-19T02:33:51.188Z,3.50
2022-12-19T02:38:51.126Z,3.79
2022-12-19T02:43:56.793Z,3.20
2022-12-19T02:48:51.008Z,3.70
2022-12-19T02:53:50.935Z,3.50
2022-12-19T02:58:50.882Z,4.09
2022-12-19T03:03:50.808Z,3.59
2022-12-19T03:08:50.752Z,3.70
2022-12-19T03:13:50.689Z,3.40
2022-12-19T03:18:50.633Z,3.40
2022-12-19T03:23:50.569Z,3.70
2022-12-19T03:28:50.498Z,3.70
2022-12-19T03:33:50.431Z,3.29
2022-12-19T03:38:50.377Z,3.20
2022-12-19T03:43:50.307Z,2.90
2022-12-19T03:48:50.254Z,3.40
2022-12-19T03:53:50.183Z,3.00
2022-12-19T03:58:50.125Z,3.20
2022-12-19T04:03:50.138Z,2.90
2022-12-19T04:08:50.004Z,3.09
2022-12-19T04:13:49.944Z,3.50
2022-12-19T04:18:49.876Z,4.00
2022-12-19T04:23:49.804Z,3.20
2022-12-19T04:28:49.748Z,3.59
2022-12-19T04:33:49.686Z,3.50
2022-12-19T04:38:49.617Z,3.79
2022-12-19T04:43:49.563Z,3.29
2022-12-19T04:48:49.486Z,3.59
2022-12-19T04:53:49.425Z,4.00
2022-12-19T04:58:49.359Z,3.90
2022-12-19T05:03:54.569Z,3.40
2022-12-19T05:08:49.232Z,4.00
2022-12-19T05:13:49.167Z,3.20
2022-12-19T05:18:49.115Z,3.50
2022-12-19T05:23:49.040Z,3.90
2022-12-19T05:28:48.977Z,3.70
2022-12-19T05:33:48.930Z,3.59
2022-12-19T05:38:48.844Z,3.79
2022-12-19T05:43:48.783Z,3.70
2022-12-19T05:48:48.711Z,4.30
2022-12-19T05:53:48.665Z,5.19
2022-12-19T05:58:48.584Z,3.29
2022-12-19T06:03:48.585Z,4.19
2022-12-19T06:08:48.456Z,4.19
2022-12-19T06:13:48.413Z,4.30
2022-12-19T06:18:48.358Z,3.90
2022-12-19T06:23:48.277Z,3.79
2022-12-19T06:28:48.222Z,4.59
2022-12-19T06:33:48.144Z,4.19
2022-12-19T06:38:48.088Z,5.00
2022-12-19T06:43:53.381Z,4.80
2022-12-19T06:48:47.952Z,4.09
2022-12-19T06:53:47.890Z,4.09
2022-12-19T06:58:47.825Z,4.59
2022-12-19T07:03:47.762Z,4.50
2022-12-19T07:08:47.698Z,5.09
2022-12-19T07:13:47.636Z,4.59
2022-12-19T07:18:47.560Z,5.30
2022-12-19T07:23:47.506Z,5.00
2022-12-19T07:28:47.431Z,4.19
2022-12-19T07:33:47.374Z,5.59
2022-12-19T07:38:47.303Z,5.19
2022-12-19T07:43:47.262Z,6.09
2022-12-19T07:48:47.195Z,4.69
2022-12-19T07:53:47.123Z,5.80
2022-12-19T07:58:47.049Z,6.59
2022-12-19T08:03:47.005Z,5.80
2022-12-19T08:08:46.921Z,6.30
2022-12-19T08:13:47.239Z,5.80
2022-12-19T08:18:46.797Z,6.09
2022-12-19T08:23:46.751Z,5.09
2022-12-19T08:28:46.668Z,5.30
2022-12-19T08:33:46.625Z,6.00
2022-12-19T08:38:46.542Z,7.00
2022-12-19T08:43:46.495Z,6.19
2022-12-19T08:48:46.416Z,6.40
2022-12-19T08:53:46.449Z,6.90
2022-12-19T08:58:46.289Z,6.50
2022-12-19T09:04:19.467Z,7.09
2022-12-19T09:08:47.189Z,6.30
2022-12-19T09:13:46.108Z,7.00
2022-12-19T09:18:48.650Z,6.30
2022-12-19T09:23:45.996Z,7.00
2022-12-19T09:28:45.906Z,7.59
2022-12-19T09:33:45.850Z,6.90
2022-12-19T09:38:45.775Z,5.59
2022-12-19T09:43:45.737Z,5.69
2022-12-19T09:48:49.475Z,5.30
2022-12-19T09:53:45.606Z,6.00
2022-12-19T09:58:45.525Z,6.30
2022-12-19T10:03:45.514Z,5.80
2022-12-19T10:09:14.444Z,6.30
2022-12-19T10:13:46.374Z,6.00
2022-12-19T10:18:48.420Z,6.40
2022-12-19T10:23:45.248Z,6.50
2022-12-19T10:28:45.342Z,6.00
2022-12-19T10:33:45.087Z,5.69
2022-12-19T10:38:49.595Z,6.59
2022-12-19T10:43:45.124Z,6.00
2022-12-19T10:48:45.167Z,6.19
2022-12-19T10:53:45.007Z,6.19
2022-12-19T10:58:44.994Z,6.00
2022-12-19T11:03:46.526Z,7.00
2022-12-19T11:08:44.662Z,6.40
2022-12-19T11:16:41.073Z,6.50
2022-12-19T11:29:26.084Z,6.40
2022-12-19T11:29:54.484Z,6.90
2022-12-19T11:30:44.494Z,6.00
2022-12-19T11:33:45.389Z,5.30
2022-12-19T11:38:44.263Z,5.90
2022-12-19T11:43:45.747Z,6.09
2022-12-19T11:48:44.135Z,5.40
2022-12-19T11:53:44.064Z,5.80
2022-12-19T11:58:44.008Z,6.80
2022-12-19T12:03:59.215Z,6.40
2022-12-19T12:10:29.307Z,4.90
2022-12-19T12:24:26.279Z,5.90
2022-12-19T12:31:02.010Z,5.69
2022-12-19T12:31:49.897Z,5.40
2022-12-19T12:31:57.248Z,4.80
2022-12-19T12:35:46.911Z,5.90
2022-12-19T12:38:44.961Z,5.09
2022-12-19T12:43:43.457Z,5.50
2022-12-19T12:48:43.402Z,5.59
2022-12-19T12:53:43.312Z,6.30
2022-12-19T12:58:43.258Z,5.69
2022-12-19T13:03:43.217Z,6.09
2022-12-19T13:08:43.142Z,5.69
2022-12-19T13:13:43.068Z,5.40
2022-12-19T13:18:43.009Z,4.90
2022-12-19T13:23:42.956Z,5.80
2022-12-19T13:28:42.876Z,6.09
2022-12-19T13:33:42.817Z,6.50
2022-12-19T13:39:57.949Z,5.30
2022-12-19T13:43:43.704Z,5.59
2022-12-19T13:48:42.623Z,5.00
2022-12-19T13:53:42.551Z,5.30
2022-12-19T13:58:42.515Z,5.69
2022-12-19T14:03:42.459Z,5.90
2022-12-19T14:08:42.366Z,6.00
2022-12-19T14:13:51.049Z,6.40
2022-12-19T14:18:45.955Z,5.80
2022-12-19T14:23:43.650Z,6.19
2022-12-19T14:28:42.107Z,5.19
2022-12-19T14:33:58.997Z,4.90
2022-12-19T14:39:25.060Z,5.19
2022-12-19T14:43:59.462Z,6.50
2022-12-19T14:54:06.397Z,5.69
2022-12-19T14:54:28.085Z,6.69
2022-12-19T14:58:54.201Z,6.50
2022-12-19T15:03:42.886Z,6.19
2022-12-19T15:10:09.027Z,6.80
2022-12-19T15:14:54.465Z,6.69
2022-12-19T15:18:42.866Z,6.00
2022-12-19T15:23:41.386Z,6.69
2022-12-19T15:28:41.342Z,5.90
2022-12-19T15:34:06.714Z,6.09
2022-12-19T15:38:42.223Z,6.50
2022-12-19T15:44:05.068Z,5.59
2022-12-19T15:48:42.091Z,5.90
2022-12-19T15:53:41.573Z,6.09
2022-12-19T15:58:40.937Z,6.09
2022-12-19T16:03:41.039Z,6.00
2022-12-19T16:08:40.825Z,5.80
2022-12-19T16:13:40.765Z,6.19
2022-12-19T16:18:40.685Z,6.09
2022-12-19T16:23:40.813Z,6.19
2022-12-19T16:28:40.545Z,5.50
2022-12-19T16:33:40.483Z,5.69
2022-12-19T16:38:40.414Z,5.30
2022-12-19T16:43:40.375Z,5.69
2022-12-19T16:48:40.285Z,5.59
2022-12-19T16:53:40.233Z,6.00
2022-12-19T16:58:43.332Z,6.40
2022-12-19T17:03:40.201Z,6.09
2022-12-19T17:08:40.030Z,5.69
2022-12-19T17:13:39.953Z,6.00
2022-12-19T17:18:39.901Z,5.69
2022-12-19T17:23:39.842Z,5.00
2022-12-19T17:28:39.767Z,6.09
2022-12-19T17:33:39.699Z,5.30
2022-12-19T17:38:39.648Z,5.90
2022-12-19T17:43:39.572Z,5.50
2022-12-19T17:48:39.509Z,5.80
2022-12-19T17:53:39.450Z,5.00
2022-12-19T17:58:39.381Z,5.80
2022-12-19T18:03:39.427Z,6.00
2022-12-19T18:08:39.253Z,5.69
2022-12-19T18:13:39.185Z,6.09
2022-12-19T18:18:39.144Z,6.30
2022-12-19T18:23:39.048Z,19.00
2022-12-19T18:28:39.004Z,6.80
2022-12-19T18:33:38.926Z,6.40
2022-12-19T18:38:38.874Z,6.00
2022-12-19T18:43:38.790Z,5.09
2022-12-19T18:48:38.745Z,5.50
2022-12-19T18:53:38.659Z,5.59
2022-12-19T18:58:38.616Z,5.30
2022-12-19T19:03:38.643Z,5.50
2022-12-19T19:08:38.472Z,6.19
2022-12-19T19:13:38.400Z,5.59
2022-12-19T19:18:38.355Z,5.30
2022-12-19T19:23:38.345Z,5.00
2022-12-19T19:28:38.217Z,5.50
2022-12-19T19:33:38.145Z,4.40
2022-12-19T19:38:38.100Z,4.90
2022-12-19T19:43:38.016Z,5.09
2022-12-19T19:48:37.969Z,4.19
2022-12-19T19:53:37.929Z,4.69
2022-12-19T19:58:37.847Z,5.00
2022-12-19T20:03:37.944Z,5.50
2022-12-19T20:08:40.226Z,5.30
2022-12-19T20:13:37.692Z,5.00
2022-12-19T20:18:37.578Z,4.90
2022-12-19T20:23:37.503Z,5.09
2022-12-19T20:28:42.299Z,4.50
2022-12-19T20:33:37.373Z,5.40
2022-12-19T20:38:37.313Z,6.00
2022-12-19T20:43:37.241Z,5.19
2022-12-19T20:48:37.186Z,5.19
2022-12-19T20:53:37.113Z,5.19
2022-12-19T20:58:37.075Z,5.30
2022-12-19T21:03:37.246Z,5.40
2022-12-19T21:08:36.977Z,5.59
2022-12-19T21:13:36.863Z,5.69
2022-12-19T21:18:36.803Z,5.09
2022-12-19T21:23:36.721Z,7.69
2022-12-19T21:28:36.685Z,5.50
2022-12-19T21:33:36.591Z,5.90
2022-12-19T21:38:36.550Z,5.40
2022-12-19T21:43:36.465Z,5.80
2022-12-19T21:48:36.412Z,5.80
2022-12-19T21:53:36.335Z,5.80
2022-12-19T21:58:36.277Z,5.50
2022-12-19T22:03:36.376Z,5.80
2022-12-19T22:08:36.151Z,6.09
2022-12-19T22:13:36.080Z,6.09
2022-12-19T22:18:36.033Z,5.50
2022-12-19T22:23:35.957Z,6.09
2022-12-19T22:28:35.905Z,5.40
2022-12-19T22:33:35.817Z,5.90
2022-12-19T22:38:35.771Z,6.40
2022-12-19T22:43:35.688Z,6.09
2022-12-19T22:48:35.647Z,5.50
2022-12-19T22:53:35.569Z,6.00
2022-12-19T22:58:35.623Z,6.50
2022-12-19T23:03:35.577Z,6.19
2022-12-19T23:08:35.373Z,4.69
2022-12-19T23:13:35.310Z,5.80
2022-12-19T23:18:35.261Z,5.19
2022-12-19T23:23:35.171Z,5.50
2022-12-19T23:28:35.114Z,5.90
2022-12-19T23:33:35.042Z,6.50
2022-12-19T23:38:35.007Z,6.59
2022-12-19T23:43:34.926Z,6.00
2022-12-19T23:48:34.856Z,5.80
2022-12-19T23:53:34.784Z,5.80
2022-12-19T23:58:34.735Z,5.50
